Time;durP1;ratioP1;P1;durP2;ratioP2;P2;SDS_P1;SDS_P2;PMS_P1;PMS_P2;Temp;Humidity;BMP_temperature;BMP_pressure;BME280_temperature;BME280_humidity;BME280_pressure;Samples;Min_cycle;Max_cycle;Signal;HPM_P1;HPM_P2
2023/01/23 00:01:17;;;;;;;;;36.75;34.25;;;;;4.25;63.78;102866.16;5061186;27;45174;-80
2023/01/23 00:03:43;;;;;;;;;34.50;33.00;;;;;4.28;63.84;102868.88;5049733;28;45411;-80
2023/01/23 00:06:11;;;;;;;;;46.00;34.50;;;;;4.24;64.54;102874.91;5054462;28;45252;-80
2023/01/23 00:08:38;;;;;;;;;44.00;34.75;;;;;4.25;64.64;102877.59;5038909;28;46037;-80
2023/01/23 00:11:09;;;;;;;;;48.50;33.25;;;;;4.15;64.36;102856.16;5036979;28;45762;-80
2023/01/23 00:13:35;;;;;;;;;37.25;33.75;;;;;4.15;64.53;102862.34;5050924;28;45323;-80
2023/01/23 00:16:06;;;;;;;;;40.00;34.00;;;;;4.25;64.38;102885.53;5043915;28;45224;-80
2023/01/23 00:18:32;;;;;;;;;43.25;30.50;;;;;4.13;64.35;102857.88;5055553;28;45511;-80
2023/01/23 00:20:57;;;;;;;;;44.50;35.25;;;;;4.24;64.59;102883.78;5051119;28;45226;-80
2023/01/23 00:23:25;;;;;;;;;42.25;33.25;;;;;4.30;64.89;102882.16;5060631;28;45287;-80
2023/01/23 00:25:50;;;;;;;;;40.75;31.25;;;;;4.20;64.37;102866.00;5046886;28;45496;-80
2023/01/23 00:28:15;;;;;;;;;39.25;31.50;;;;;4.29;64.64;102869.75;5050357;28;46055;-80
2023/01/23 00:30:41;;;;;;;;;37.00;33.75;;;;;4.40;64.36;102877.13;5050702;28;45245;-80
2023/01/23 00:33:06;;;;;;;;;44.00;40.25;;;;;4.45;63.93;102878.16;5040963;28;45323;-80
2023/01/23 00:35:34;;;;;;;;;44.00;40.25;;;;;4.41;64.40;102860.44;5053486;28;46012;-80
2023/01/23 00:37:59;;;;;;;;;37.25;30.25;;;;;4.35;64.65;102841.75;5040278;28;46041;-80
2023/01/23 00:40:24;;;;;;;;;38.25;32.50;;;;;4.45;64.33;102869.34;5042255;28;45283;-80
2023/01/23 00:42:50;;;;;;;;;37.50;33.00;;;;;4.45;64.02;102882.56;5055368;28;45400;-80
2023/01/23 00:45:15;;;;;;;;;39.75;29.75;;;;;4.24;63.91;102859.97;5060456;28;45519;-80
2023/01/23 00:47:41;;;;;;;;;41.75;33.25;;;;;4.35;64.06;102886.69;5060607;28;45538;-80
2023/01/23 00:50:07;;;;;;;;;40.25;33.00;;;;;4.28;63.81;102871.53;5043276;28;45335;-80
2023/01/23 00:52:32;;;;;;;;;45.75;39.00;;;;;4.20;63.98;102876.59;5042489;28;45306;-80
2023/01/23 00:54:57;;;;;;;;;47.50;40.50;;;;;4.03;64.31;102875.22;5053703;28;45532;-80
2023/01/23 00:57:23;;;;;;;;;40.00;35.50;;;;;4.05;64.71;102870.88;5050960;28;47497;-80
2023/01/23 00:59:48;;;;;;;;;36.25;33.00;;;;;4.18;64.03;102882.69;5070963;28;45188;-80
2023/01/23 01:02:13;;;;;;;;;38.50;33.75;;;;;4.13;64.29;102873.75;5052346;28;45197;-80
2023/01/23 01:04:38;;;;;;;;;40.25;35.50;;;;;4.10;64.98;102879.81;5054109;28;45257;-80
2023/01/23 01:07:04;;;;;;;;;43.75;36.75;;;;;3.96;64.70;102860.94;5052059;28;47088;-80
2023/01/23 01:09:29;;;;;;;;;37.75;34.50;;;;;4.02;64.73;102882.22;5045026;28;45214;-80
2023/01/23 01:11:55;;;;;;;;;38.25;33.25;;;;;3.96;64.08;102874.16;5059481;28;45332;-80
2023/01/23 01:14:20;;;;;;;;;49.00;38.25;;;;;3.97;64.77;102881.22;5048007;28;45218;-80
2023/01/23 01:16:46;;;;;;;;;36.50;30.50;;;;;3.95;64.65;102880.28;5065428;28;46977;-80
2023/01/23 01:19:12;;;;;;;;;39.50;31.75;;;;;3.90;64.57;102866.03;5047490;27;45467;-80
2023/01/23 01:21:39;;;;;;;;;45.00;37.50;;;;;3.94;65.45;102870.53;5045666;28;45429;-80
2023/01/23 01:24:04;;;;;;;;;46.25;35.00;;;;;4.05;65.59;102877.03;5058062;28;45609;-80
2023/01/23 01:26:30;;;;;;;;;50.25;39.50;;;;;4.10;65.66;102871.91;5049150;28;46005;-80
2023/01/23 01:28:55;;;;;;;;;42.50;37.75;;;;;4.07;65.05;102854.19;5042030;28;45352;-80
2023/01/23 01:31:21;;;;;;;;;48.25;40.25;;;;;4.16;65.01;102865.88;5050475;28;45411;-80
2023/01/23 01:33:47;;;;;;;;;47.75;40.00;;;;;4.17;64.85;102854.47;5055018;28;45245;-80
2023/01/23 01:36:14;;;;;;;;;46.00;39.50;;;;;4.25;64.88;102876.72;5062748;28;47228;-80
2023/01/23 01:38:40;;;;;;;;;50.25;37.50;;;;;4.13;65.37;102866.69;5044907;28;45272;-80
2023/01/23 01:41:07;;;;;;;;;52.25;39.50;;;;;4.10;64.81;102858.69;5050667;28;45496;-80
2023/01/23 01:43:33;;;;;;;;;46.25;37.50;;;;;4.16;65.02;102873.81;5058742;28;45358;-80
2023/01/23 01:46:21;;;;;;;;;35.50;34.25;;;;;4.14;64.90;102868.47;5059690;28;45401;-80
2023/01/23 01:49:08;;;;;;;;;39.50;35.25;;;;;3.90;64.66;102826.41;5056981;28;46145;-80
2023/01/23 01:51:49;;;;;;;;;44.50;35.00;;;;;4.08;64.83;102857.75;5053167;28;45232;-80
2023/01/23 01:54:30;;;;;;;;;47.00;36.25;;;;;3.96;65.41;102841.53;5054886;28;45279;-80
2023/01/23 01:57:19;;;;;;;;;28.75;20.75;;;;;4.01;65.12;102848.75;5050819;28;45320;-80
2023/01/23 01:59:50;;;;;;;;;49.25;40.75;;;;;4.02;66.11;102860.19;5065938;28;45807;-80
2023/01/23 02:02:21;;;;;;;;;39.75;33.75;;;;;4.03;65.34;102857.59;5048870;28;45274;-80
2023/01/23 02:04:52;;;;;;;;;44.75;38.00;;;;;3.99;65.43;102844.25;5046702;28;45673;-80
2023/01/23 02:07:24;;;;;;;;;43.25;35.75;;;;;3.88;65.11;102830.75;5047740;28;45378;-80
2023/01/23 02:09:51;;;;;;;;;45.75;40.25;;;;;3.92;65.69;102840.53;5043524;28;45358;-80
2023/01/23 02:12:17;;;;;;;;;44.75;37.50;;;;;4.02;66.29;102845.22;5047716;28;45380;-80
2023/01/23 02:14:43;;;;;;;;;35.50;31.00;;;;;4.11;66.03;102846.34;5052499;28;45476;-80
2023/01/23 02:17:09;;;;;;;;;42.75;35.75;;;;;4.15;65.79;102850.88;5056249;28;47077;-80
2023/01/23 02:20:03;;;;;;;;;45.50;36.00;;;;;4.22;65.75;102853.72;5046867;28;45297;-80
2023/01/23 02:22:42;;;;;;;;;42.50;33.00;;;;;4.22;64.94;102856.38;5057227;28;45502;-80
2023/01/23 02:25:41;;;;;;;;;37.00;32.25;;;;;4.21;65.39;102845.75;5049755;28;45224;-80
2023/01/23 02:28:10;;;;;;;;;40.00;34.50;;;;;4.16;65.33;102836.78;5032827;28;45196;-80
2023/01/23 02:30:38;;;;;;;;;47.50;36.00;;;;;4.30;65.16;102846.00;5058585;28;45340;-80
2023/01/23 02:33:30;;;;;;;;;43.00;39.25;;;;;4.29;64.76;102857.44;5059127;28;45678;-80
2023/01/23 02:35:55;;;;;;;;;41.75;33.75;;;;;4.19;65.35;102845.72;5018310;28;45487;-80
2023/01/23 02:38:25;;;;;;;;;51.75;40.75;;;;;4.22;65.64;102844.91;5041723;28;45569;-80
2023/01/23 02:40:54;;;;;;;;;39.25;33.25;;;;;4.18;64.94;102841.28;5048048;28;45351;-80
2023/01/23 02:43:24;;;;;;;;;39.25;35.50;;;;;4.19;64.91;102843.09;5044363;28;45533;-80
2023/01/23 02:45:50;;;;;;;;;47.75;34.25;;;;;4.18;65.65;102843.94;5059484;28;45212;-80
2023/01/23 02:48:16;;;;;;;;;36.50;28.75;;;;;4.30;65.48;102856.59;5055360;28;47914;-80
2023/01/23 02:50:43;;;;;;;;;43.75;34.25;;;;;4.25;65.68;102839.72;5059490;28;45388;-80
2023/01/23 02:53:09;;;;;;;;;47.25;35.75;;;;;4.38;65.26;102859.47;5052060;28;45462;-80
2023/01/23 02:55:36;;;;;;;;;42.25;36.25;;;;;4.33;65.75;102867.25;5049160;28;45325;-80
2023/01/23 03:00:46;;;;;;;;;48.75;38.50;;;;;4.31;65.66;102863.69;5065160;28;45826;-80
2023/01/23 03:03:12;;;;;;;;;44.75;36.75;;;;;4.39;64.99;102871.81;5052270;28;45440;-80
2023/01/23 03:05:38;;;;;;;;;45.50;40.75;;;;;4.30;65.32;102853.06;5047439;28;45279;-80
2023/01/23 03:08:04;;;;;;;;;42.75;35.75;;;;;4.45;65.14;102866.69;5039886;28;46545;-80
2023/01/23 03:10:29;;;;;;;;;43.50;38.00;;;;;4.45;65.13;102856.13;5042371;28;45370;-80
2023/01/23 03:13:00;;;;;;;;;36.25;27.00;;;;;4.51;65.05;102869.50;5047172;28;45496;-80
2023/01/23 03:15:26;;;;;;;;;46.75;36.25;;;;;4.44;65.22;102862.25;5052612;28;45578;-80
2023/01/23 03:17:52;;;;;;;;;45.25;33.00;;;;;4.38;65.28;102852.41;5061484;28;47381;-80
2023/01/23 03:20:18;;;;;;;;;40.75;35.50;;;;;4.50;65.89;102866.81;5045553;28;45870;-80
2023/01/23 03:22:44;;;;;;;;;43.00;36.25;;;;;4.44;65.04;102849.03;5054701;28;45252;-80
2023/01/23 03:25:09;;;;;;;;;51.00;39.00;;;;;4.50;64.95;102851.84;5039604;28;45514;-80
2023/01/23 03:27:36;;;;;;;;;48.50;38.00;;;;;4.56;65.48;102864.31;5058721;28;45508;-80
2023/01/23 03:30:20;;;;;;;;;35.50;29.00;;;;;4.50;64.72;102858.88;5059784;28;45196;-80
2023/01/23 03:32:46;;;;;;;;;27.00;21.00;;;;;4.41;64.91;102849.84;5051139;28;45465;-80
2023/01/23 03:35:13;;;;;;;;;40.00;38.00;;;;;4.45;64.77;102862.28;5041387;28;45417;-80
2023/01/23 03:37:39;;;;;;;;;43.00;39.00;;;;;4.44;65.68;102854.31;5045635;28;45333;-80
2023/01/23 03:42:48;;;;;;;;;37.50;33.50;;;;;4.44;65.24;102854.31;5040678;28;45460;-80
2023/01/23 03:45:14;;;;;;;;;39.75;34.25;;;;;4.50;64.85;102866.81;5042528;28;45456;-80
2023/01/23 03:47:39;;;;;;;;;46.50;37.25;;;;;4.49;65.39;102855.31;5048927;28;46923;-80
2023/01/23 03:50:05;;;;;;;;;21.75;18.00;;;;;4.50;65.79;102854.47;5039777;28;45466;-80
2023/01/23 03:52:31;;;;;;;;;39.75;36.25;;;;;4.56;66.04;102861.69;5049562;28;45397;-80
2023/01/23 03:54:56;;;;;;;;;41.75;37.75;;;;;4.46;65.89;102847.34;5059353;28;45591;-80
2023/01/23 03:57:22;;;;;;;;;26.75;24.75;;;;;4.59;65.70;102867.97;5053580;28;47228;-80
2023/01/23 03:59:47;;;;;;;;;42.75;37.00;;;;;4.44;65.14;102842.00;5067817;28;45399;-80
2023/01/23 04:02:13;;;;;;;;;43.00;34.25;;;;;4.56;65.48;102856.38;5057188;28;45328;-80
2023/01/23 04:04:38;;;;;;;;;41.00;36.25;;;;;4.57;65.54;102855.53;5053424;28;45476;-80
2023/01/23 04:07:04;;;;;;;;;42.00;37.00;;;;;4.51;65.00;102852.72;5037472;28;48389;-80
2023/01/23 04:09:30;;;;;;;;;43.75;36.50;;;;;4.45;64.82;102846.41;5054535;28;45446;-80
2023/01/23 04:11:56;;;;;;;;;39.75;31.50;;;;;4.42;65.61;102850.75;5040980;28;45440;-80
2023/01/23 04:14:23;;;;;;;;;36.75;33.50;;;;;4.37;65.47;102847.06;5052557;28;46701;-80
2023/01/23 04:16:49;;;;;;;;;42.25;32.00;;;;;4.43;65.84;102858.72;5054398;28;45697;-80
2023/01/23 04:19:18;;;;;;;;;43.50;36.25;;;;;4.36;65.40;102848.84;5043636;28;45364;-80
2023/01/23 04:21:44;;;;;;;;;42.00;36.00;;;;;4.24;65.38;102843.19;5041566;28;45318;-80
2023/01/23 04:24:10;;;;;;;;;39.75;32.50;;;;;4.34;65.61;102870.78;5044559;28;45426;-80
2023/01/23 04:26:35;;;;;;;;;48.25;39.00;;;;;4.37;65.94;102861.19;5056984;28;48228;-80
2023/01/23 04:29:00;;;;;;;;;36.75;33.00;;;;;4.39;66.19;102863.88;5058819;28;45285;-80
2023/01/23 04:31:26;;;;;;;;;44.50;37.75;;;;;4.24;65.74;102837.91;5050508;28;45449;-80
2023/01/23 04:33:51;;;;;;;;;50.50;39.25;;;;;4.47;65.45;102872.03;5043728;28;45585;-80
2023/01/23 04:36:16;;;;;;;;;36.50;36.00;;;;;4.48;65.83;102866.78;5057725;28;46523;-80
2023/01/23 04:38:42;;;;;;;;;32.00;30.75;;;;;4.43;66.08;102863.13;5049600;28;45359;-80
2023/01/23 04:41:09;;;;;;;;;38.50;35.25;;;;;4.47;65.90;102870.25;5046975;28;45358;-80
2023/01/23 04:43:35;;;;;;;;;40.00;37.00;;;;;4.50;65.16;102864.19;5050894;28;46326;-80
2023/01/23 04:46:00;;;;;;;;;29.00;27.25;;;;;4.53;65.88;102874.84;5050416;28;45337;-80
2023/01/23 04:48:26;;;;;;;;;37.75;34.75;;;;;4.55;65.63;102874.00;5057577;28;45331;-80
2023/01/23 04:50:51;;;;;;;;;45.25;34.00;;;;;4.53;65.57;102870.44;5056633;28;45630;-80
2023/01/23 04:53:17;;;;;;;;;40.00;33.00;;;;;4.45;64.85;102870.22;5051001;28;45823;-80
2023/01/23 04:55:42;;;;;;;;;43.50;39.25;;;;;4.31;65.63;102863.69;5057892;28;46039;-80
2023/01/23 04:58:10;;;;;;;;;41.25;34.00;;;;;4.33;65.85;102867.25;5058493;28;45789;-80
2023/01/23 05:00:36;;;;;;;;;45.00;36.75;;;;;4.31;66.20;102857.47;5065801;28;45547;-80
2023/01/23 05:03:01;;;;;;;;;38.25;34.25;;;;;4.27;66.00;102853.84;5045050;28;45221;-80
2023/01/23 05:05:26;;;;;;;;;36.50;32.75;;;;;4.43;65.59;102879.88;5048283;28;47024;-80
2023/01/23 05:07:52;;;;;;;;;45.75;34.00;;;;;4.26;65.83;102863.56;5043366;28;45615;-80
2023/01/23 05:10:17;;;;;;;;;41.50;38.50;;;;;4.19;66.06;102852.75;5039411;28;45397;-80
2023/01/23 05:12:43;;;;;;;;;38.25;34.50;;;;;4.27;65.42;102872.38;5049708;28;45384;-80
2023/01/23 05:15:09;;;;;;;;;45.75;38.25;;;;;4.30;65.77;102883.03;5037829;28;46259;-80
2023/01/23 05:17:35;;;;;;;;;42.00;34.25;;;;;4.34;65.55;102876.97;5051004;28;45933;-80
2023/01/23 05:20:00;;;;;;;;;48.00;42.00;;;;;4.39;65.53;102871.81;5048574;28;45324;-80
2023/01/23 05:22:26;;;;;;;;;41.75;35.50;;;;;4.37;66.35;102874.41;5055854;28;45446;-80
2023/01/23 05:24:51;;;;;;;;;44.00;32.75;;;;;4.36;65.90;102859.41;5038198;28;46214;-80
2023/01/23 05:27:17;;;;;;;;;40.50;35.00;;;;;4.50;66.12;102890.63;5041722;28;45449;-80
2023/01/23 05:29:42;;;;;;;;;43.50;40.00;;;;;4.62;65.63;102896.25;5041860;28;45283;-80
2023/01/23 05:32:07;;;;;;;;;39.25;34.50;;;;;4.59;66.43;102886.50;5052170;28;45438;-80
2023/01/23 05:34:33;;;;;;;;;44.50;35.50;;;;;4.65;66.29;102898.97;5040886;28;46417;-80
2023/01/23 05:36:58;;;;;;;;;38.00;31.50;;;;;4.64;66.17;102894.53;5056217;28;46265;-80
2023/01/23 05:39:23;;;;;;;;;33.50;29.25;;;;;4.55;66.17;102886.34;5041765;28;45315;-80
2023/01/23 05:41:49;;;;;;;;;43.50;36.25;;;;;4.60;65.54;102908.53;5055135;28;45461;-80
2023/01/23 05:44:14;;;;;;;;;39.75;37.00;;;;;4.49;65.70;102902.94;5048951;28;47867;-80
2023/01/23 05:46:40;;;;;;;;;36.50;32.75;;;;;4.44;65.83;102905.47;5052326;28;45447;-80
2023/01/23 05:49:05;;;;;;;;;47.00;37.75;;;;;4.43;66.12;102900.16;5040204;28;45717;-80
2023/01/23 05:51:32;;;;;;;;;39.50;37.75;;;;;4.41;65.80;102900.09;5055910;28;45471;-80
2023/01/23 05:53:59;;;;;;;;;43.00;35.75;;;;;4.49;65.95;102909.97;5048936;28;45370;-80
2023/01/23 05:56:24;;;;;;;;;42.00;32.50;;;;;4.53;65.24;102911.88;5048850;28;45405;-80
2023/01/23 05:58:50;;;;;;;;;47.25;36.50;;;;;4.50;65.62;102912.69;5058341;28;45346;-80
2023/01/23 06:01:16;;;;;;;;;38.00;32.00;;;;;4.47;65.83;102901.13;5059019;28;45711;-80
2023/01/23 06:03:41;;;;;;;;;43.75;36.00;;;;;4.40;65.84;102900.06;5056042;28;45966;-80
2023/01/23 06:06:07;;;;;;;;;41.75;38.00;;;;;4.35;66.09;102915.78;5059702;28;45359;-80
2023/01/23 06:08:32;;;;;;;;;41.50;33.25;;;;;4.24;66.36;102914.56;5050673;28;45257;-80
2023/01/23 06:10:59;;;;;;;;;43.00;37.00;;;;;4.33;65.54;102920.13;5047104;28;45758;-80
2023/01/23 06:13:25;;;;;;;;;32.00;23.00;;;;;4.28;66.03;102921.75;5051912;28;46179;-80
2023/01/23 06:15:50;;;;;;;;;26.75;24.75;;;;;4.31;66.46;102934.16;5044133;28;45730;-80
2023/01/23 06:18:16;;;;;;;;;38.25;31.75;;;;;4.21;66.64;102917.13;5054850;28;45290;-80
2023/01/23 06:20:41;;;;;;;;;35.50;32.25;;;;;4.32;65.57;102933.31;5054055;28;45579;-80
2023/01/23 06:23:07;;;;;;;;;43.50;32.25;;;;;4.15;66.51;102899.34;5052469;28;45862;-80
2023/01/23 06:25:32;;;;;;;;;29.75;27.75;;;;;4.15;65.80;102893.19;5059583;28;45297;-80
2023/01/23 06:27:58;;;;;;;;;29.75;28.00;;;;;4.38;66.22;102929.09;5053352;28;45334;-80
2023/01/23 06:30:23;;;;;;;;;32.25;26.75;;;;;4.16;65.92;102889.66;5061223;28;45769;-80
2023/01/23 06:32:48;;;;;;;;;37.00;29.00;;;;;4.50;65.30;102939.13;5057575;28;45239;-80
2023/01/23 06:35:14;;;;;;;;;40.50;32.00;;;;;4.50;65.33;102941.75;5046102;28;45302;-80
2023/01/23 06:37:39;;;;;;;;;33.25;26.75;;;;;4.26;65.50;102895.28;5051982;28;45409;-80
2023/01/23 06:40:05;;;;;;;;;34.00;29.75;;;;;4.20;65.36;102887.16;5043003;28;45317;-81
2023/01/23 06:42:31;;;;;;;;;38.50;30.00;;;;;4.58;65.23;102934.06;5054337;28;46780;-82
2023/01/23 06:44:56;;;;;;;;;29.50;24.50;;;;;4.61;65.97;102939.41;5058384;28;45377;-82
2023/01/23 06:47:23;;;;;;;;;31.75;28.25;;;;;4.55;65.79;102936.63;5050503;28;45292;-81
2023/01/23 06:49:48;;;;;;;;;35.00;29.00;;;;;4.57;65.62;102930.50;5046784;28;45270;-82
2023/01/23 06:52:14;;;;;;;;;31.25;25.00;;;;;4.66;65.59;102953.69;5052250;28;45455;-82
2023/01/23 06:54:39;;;;;;;;;31.75;27.00;;;;;4.68;65.64;102948.41;5048898;28;46630;-82
2023/01/23 06:57:04;;;;;;;;;35.00;27.50;;;;;4.63;65.50;102935.06;5048459;28;45203;-80
2023/01/23 06:59:31;;;;;;;;;29.50;23.75;;;;;4.70;65.32;102926.44;5065643;28;45437;-80
2023/01/23 07:01:56;;;;;;;;;37.75;35.25;;;;;4.69;65.65;102934.34;5048062;28;47185;-80
2023/01/23 07:04:21;;;;;;;;;33.50;27.25;;;;;4.52;64.35;102926.81;5053644;28;45314;-81
2023/01/23 07:06:47;;;;;;;;;35.00;31.00;;;;;4.52;64.99;102937.41;5048022;28;45541;-80
2023/01/23 07:09:13;;;;;;;;;33.50;30.25;;;;;4.49;65.39;102934.69;5050182;28;45511;-81
2023/01/23 07:11:39;;;;;;;;;33.50;27.00;;;;;4.53;65.30;102931.28;5048832;28;48016;-81
2023/01/23 07:14:04;;;;;;;;;26.00;21.00;;;;;4.59;65.42;102942.03;5042893;28;45313;-81
2023/01/23 07:16:31;;;;;;;;;33.00;29.00;;;;;4.60;65.86;102938.53;5054669;28;45408;-80
2023/01/23 07:19:06;;;;;;;;;28.50;25.25;;;;;4.66;65.58;102940.47;5058205;28;45362;-80
2023/01/23 07:21:54;;;;;;;;;38.00;34.75;;;;;4.33;65.02;102877.84;5028464;28;45556;-80
2023/01/23 07:25:16;;;;;;;;;34.25;28.00;;;;;4.70;65.12;102938.78;5022290;28;45362;-80
2023/01/23 07:27:47;;;;;;;;;39.00;33.75;;;;;4.51;65.28;102900.34;5010766;28;45782;-81
2023/01/23 07:30:31;;;;;;;;;39.00;32.00;;;;;4.56;65.05;102911.94;5037245;28;45434;-81
2023/01/23 07:33:27;;;;;;;;;38.25;31.50;;;;;4.32;65.10;102883.97;5022951;28;45423;-81
2023/01/23 07:35:52;;;;;;;;;42.50;34.50;;;;;4.28;65.51;102879.47;5020462;28;46008;-81
2023/01/23 07:38:22;;;;;;;;;40.00;29.50;;;;;4.37;64.77;102892.03;5018194;28;45420;-81
2023/01/23 07:40:59;;;;;;;;;38.75;31.50;;;;;4.37;65.48;102892.03;5033048;28;45559;-81
2023/01/23 07:43:29;;;;;;;;;31.75;25.00;;;;;4.49;64.98;102905.56;5003456;28;47407;-81
2023/01/23 07:46:26;;;;;;;;;34.25;29.00;;;;;4.64;65.01;102931.56;5032365;28;45460;-81
2023/01/23 07:48:55;;;;;;;;;37.00;30.75;;;;;4.64;65.32;102921.91;5016346;28;45421;-81
2023/01/23 07:51:25;;;;;;;;;34.75;29.25;;;;;4.55;65.57;102905.75;5013432;28;45395;-81
2023/01/23 07:54:03;;;;;;;;;37.50;30.00;;;;;4.75;65.20;102926.56;5049868;28;45406;-81
2023/01/23 07:59:54;;;;;;;;;37.25;30.75;;;;;4.53;64.67;102896.00;5051078;28;45444;-81
2023/01/23 08:02:43;;;;;;;;;29.00;26.25;;;;;4.53;64.23;102911.88;5039169;28;45323;-81
2023/01/23 08:05:09;;;;;;;;;34.75;29.50;;;;;4.43;64.73;102916.91;5052648;28;46369;-81
2023/01/23 08:07:34;;;;;;;;;33.25;30.50;;;;;4.46;64.81;102934.63;5057928;28;45695;-81
2023/01/23 08:10:00;;;;;;;;;28.00;24.25;;;;;4.58;64.61;102955.22;5054247;28;45412;-81
2023/01/23 08:12:25;;;;;;;;;37.75;32.00;;;;;4.53;64.89;102951.56;5046695;28;45384;-81
2023/01/23 08:14:50;;;;;;;;;42.75;30.50;;;;;4.44;64.60;102938.94;5037928;28;48271;-82
2023/01/23 08:17:16;;;;;;;;;38.25;32.25;;;;;4.43;65.22;102945.97;5044196;28;45509;-81
2023/01/23 08:19:41;;;;;;;;;36.75;34.25;;;;;4.37;65.20;102931.69;5051975;28;45292;-81
2023/01/23 08:22:06;;;;;;;;;28.00;20.75;;;;;4.39;65.35;102938.84;5050849;28;45535;-80
2023/01/23 08:24:32;;;;;;;;;30.50;29.25;;;;;4.42;65.44;102938.91;5056926;28;45481;-81
2023/01/23 08:26:57;;;;;;;;;33.75;30.75;;;;;4.56;65.38;102962.19;5052454;28;46050;-81
2023/01/23 08:29:23;;;;;;;;;34.75;31.50;;;;;4.48;66.27;102932.91;5040001;28;45300;-81
2023/01/23 08:31:50;;;;;;;;;42.25;34.75;;;;;4.54;66.33;102937.44;5044914;28;45194;-81
2023/01/23 08:34:15;;;;;;;;;41.00;35.50;;;;;4.62;65.11;102959.72;5051749;28;46050;-81
2023/01/23 08:36:41;;;;;;;;;43.25;33.25;;;;;4.60;64.87;102961.44;5059308;28;45259;-81
2023/01/23 08:39:06;;;;;;;;;37.25;29.50;;;;;4.58;65.18;102964.03;5047937;28;45375;-81
2023/01/23 08:41:31;;;;;;;;;41.00;36.25;;;;;4.45;65.44;102933.69;5055972;28;45267;-81
2023/01/23 08:44:00;;;;;;;;;40.00;34.00;;;;;4.56;65.64;102947.25;5050009;28;45912;-81
2023/01/23 08:46:37;;;;;;;;;40.00;32.50;;;;;4.64;64.78;102960.66;5055816;28;45873;-81
2023/01/23 08:49:03;;;;;;;;;38.75;28.50;;;;;4.53;65.30;102943.63;5051669;28;45284;-81
2023/01/23 08:51:29;;;;;;;;;37.00;30.00;;;;;4.71;65.33;102972.31;5049701;28;45368;-81
2023/01/23 08:53:55;;;;;;;;;39.00;34.50;;;;;4.74;65.69;102964.47;5055992;28;47228;-81
2023/01/23 08:56:22;;;;;;;;;43.25;33.00;;;;;4.68;64.81;102954.63;5045131;28;45875;-81
2023/01/23 08:58:48;;;;;;;;;37.00;30.75;;;;;4.71;65.44;102957.34;5054956;28;45482;-81
2023/01/23 09:01:22;;;;;;;;;40.00;33.00;;;;;4.54;65.10;102930.41;5052548;28;45379;-81
2023/01/23 09:03:48;;;;;;;;;36.00;33.00;;;;;4.56;65.73;102925.16;5045491;28;45469;-81
2023/01/23 09:06:16;;;;;;;;;34.25;33.50;;;;;4.70;65.40;102952.00;5054240;28;45896;-81
2023/01/23 09:08:41;;;;;;;;;40.75;31.25;;;;;4.64;65.84;102935.13;5053148;27;45358;-81
2023/01/23 09:11:08;;;;;;;;;38.00;31.00;;;;;4.70;65.71;102942.31;5056835;28;45493;-81
2023/01/23 09:13:34;;;;;;;;;32.75;29.50;;;;;4.71;64.89;102932.63;5051530;28;45669;-81
2023/01/23 09:16:00;;;;;;;;;21.25;19.75;;;;;4.71;65.15;102953.78;5058619;28;45549;-81
2023/01/23 09:18:25;;;;;;;;;38.75;31.75;;;;;4.70;65.43;102952.00;5058027;28;45396;-81
2023/01/23 09:20:52;;;;;;;;;39.50;32.25;;;;;4.76;65.56;102961.00;5041006;28;45289;-81
2023/01/23 09:23:18;;;;;;;;;30.75;30.00;;;;;4.75;65.66;102951.28;5064193;28;45448;-81
2023/01/23 09:25:43;;;;;;;;;36.75;33.75;;;;;4.72;65.50;102943.25;5056648;28;45342;-81
2023/01/23 09:28:09;;;;;;;;;32.50;28.00;;;;;4.91;65.15;102967.56;5045796;28;45384;-81
2023/01/23 09:30:34;;;;;;;;;25.25;23.00;;;;;4.91;65.28;102964.91;5041516;28;45786;-81
2023/01/23 09:33:00;;;;;;;;;29.50;26.50;;;;;4.83;64.96;102949.72;5049890;28;45449;-81
2023/01/23 09:35:25;;;;;;;;;30.00;28.75;;;;;5.02;65.02;102974.03;5055234;28;45716;-81
2023/01/23 09:37:59;;;;;;;;;44.00;36.75;;;;;5.06;64.91;102975.94;5049287;28;45422;-81
2023/01/23 09:40:37;;;;;;;;;38.50;35.75;;;;;5.04;65.14;102974.09;5054686;28;45428;-82
2023/01/23 09:43:17;;;;;;;;;38.50;32.00;;;;;5.15;64.46;102989.38;5040914;28;45942;-82
2023/01/23 09:45:56;;;;;;;;;38.75;33.00;;;;;5.16;65.20;102996.50;5040109;28;45327;-82
2023/01/23 09:48:38;;;;;;;;;45.50;34.25;;;;;5.12;64.63;102985.78;5054994;28;45469;-82
2023/01/23 09:51:46;;;;;;;;;39.25;33.50;;;;;5.22;65.16;103006.34;5061323;28;45251;-82
2023/01/23 09:54:43;;;;;;;;;43.25;33.25;;;;;5.29;64.67;103008.28;4999226;28;46722;-82
2023/01/23 09:57:12;;;;;;;;;47.75;36.00;;;;;5.13;64.93;102977.88;5048591;28;45846;-82
2023/01/23 09:59:42;;;;;;;;;34.75;30.00;;;;;5.28;64.00;103000.28;5058144;28;45604;-83
2023/01/23 10:02:18;;;;;;;;;39.50;30.75;;;;;5.28;63.96;103016.19;5047771;28;45440;-82
2023/01/23 10:04:46;;;;;;;;;38.75;31.50;;;;;5.18;64.47;103015.94;5055617;28;46957;-82
2023/01/23 10:07:21;;;;;;;;;37.25;31.50;;;;;5.07;64.84;103000.63;5047003;28;45296;-84
2023/01/23 10:10:27;;;;;;;;;43.50;38.50;;;;;5.08;64.56;103011.28;5052741;28;45582;-80
2023/01/23 10:13:32;;;;;;;;;43.50;34.00;;;;;5.13;65.55;103020.22;5042465;28;45718;-79
2023/01/23 10:15:57;;;;;;;;;39.50;34.75;;;;;5.17;64.74;103016.78;5043255;28;46093;-80
2023/01/23 10:18:39;;;;;;;;;33.67;30.67;;;;;5.08;65.15;103000.69;5066389;28;45885;-79
2023/01/23 10:21:23;;;;;;;;;36.50;32.50;;;;;5.27;65.06;103030.28;5054646;28;45372;-79
2023/01/23 10:24:03;;;;;;;;;52.75;39.00;;;;;5.29;64.81;103032.09;5045316;28;45202;-78
2023/01/23 10:26:31;;;;;;;;;39.00;33.75;;;;;5.26;65.10;103020.53;5047174;28;47456;-78
2023/01/23 10:29:10;;;;;;;;;34.25;27.25;;;;;5.22;64.08;103008.09;5049155;28;45925;-78
2023/01/23 10:31:56;;;;;;;;;33.00;29.75;;;;;5.24;65.04;103025.78;5058210;27;46229;-78
2023/01/23 10:34:26;;;;;;;;;35.25;31.00;;;;;5.22;64.14;103018.69;5064285;28;45334;-78
2023/01/23 10:37:06;;;;;;;;;38.25;33.25;;;;;5.22;64.37;103023.97;5059064;28;47360;-79
2023/01/23 10:39:43;;;;;;;;;38.25;31.50;;;;;5.23;64.49;103023.09;5054884;28;46010;-79
2023/01/23 10:42:12;;;;;;;;;24.50;21.25;;;;;5.09;64.46;103001.56;5047614;28;45334;-79
2023/01/23 10:44:37;;;;;;;;;32.25;28.75;;;;;5.13;64.99;103014.94;5048513;28;46312;-79
2023/01/23 10:47:18;;;;;;;;;30.00;26.00;;;;;5.08;64.39;103019.22;5064428;28;45353;-79
2023/01/23 10:49:45;;;;;;;;;34.25;29.25;;;;;5.11;64.78;103014.00;5044680;28;45895;-79
2023/01/23 10:52:36;;;;;;;;;34.25;25.75;;;;;5.11;64.75;103010.44;5056046;28;45492;-78
2023/01/23 10:55:05;;;;;;;;;31.50;25.25;;;;;4.98;64.94;102991.59;5049923;28;46485;-79
2023/01/23 10:57:42;;;;;;;;;35.25;27.25;;;;;4.99;64.78;103006.63;5048048;28;46163;-79
2023/01/23 11:00:20;;;;;;;;;34.75;29.50;;;;;4.97;63.89;102995.09;5060954;28;45269;-78
2023/01/23 11:02:45;;;;;;;;;29.00;26.75;;;;;4.77;64.77;102976.00;5043289;28;45429;-78
2023/01/23 11:05:40;;;;;;;;;34.50;31.50;;;;;4.94;64.77;102999.41;5042542;28;45315;-78
2023/01/23 11:08:26;;;;;;;;;43.75;33.25;;;;;4.97;65.23;102999.50;5049629;28;45991;-78
2023/01/23 11:10:52;;;;;;;;;40.75;29.50;;;;;4.96;65.26;102982.72;5048570;28;45850;-78
2023/01/23 11:13:29;;;;;;;;;30.00;25.00;;;;;5.03;64.87;102989.06;5038926;28;45674;-78
2023/01/23 11:15:55;;;;;;;;;28.75;22.25;;;;;5.03;65.06;102986.44;5051824;28;45729;-78
2023/01/23 11:18:33;;;;;;;;;38.75;31.25;;;;;5.08;64.29;102994.47;5058564;28;48643;-78
2023/01/23 11:20:59;;;;;;;;;31.50;25.75;;;;;5.04;64.86;103000.56;5055793;27;45718;-77
2023/01/23 11:23:25;;;;;;;;;28.25;22.25;;;;;4.93;64.36;102981.75;5057290;28;45442;-78
2023/01/23 11:25:52;;;;;;;;;28.50;25.25;;;;;5.01;64.16;102990.75;5056337;28;45477;-78
2023/01/23 11:28:28;;;;;;;;;34.00;26.00;;;;;4.93;63.95;102985.28;5050424;28;45778;-78
2023/01/23 11:31:12;;;;;;;;;30.25;26.00;;;;;4.95;64.74;102993.28;5056042;28;45944;-77
2023/01/23 11:33:51;;;;;;;;;33.25;29.25;;;;;4.93;64.93;102984.41;5044778;28;45436;-78
2023/01/23 11:36:17;;;;;;;;;34.75;26.75;;;;;4.93;64.92;102984.41;5050450;28;45822;-78